sensor_id;sensor_type;location;lat;lon;timestamp;temperature;humidity
49222;DHT22;35047;37.588;-122.048;2023-06-26T00:00:48;31.00;44.30
49222;DHT22;35047;37.588;-122.048;2023-06-26T00:03:15;30.90;44.70
49222;DHT22;35047;37.588;-122.048;2023-06-26T00:05:42;31.10;44.30
49222;DHT22;35047;37.588;-122.048;2023-06-26T00:08:08;31.20;44.70
49222;DHT22;35047;37.588;-122.048;2023-06-26T00:10:35;31.20;44.60
49222;DHT22;35047;37.588;-122.048;2023-06-26T00:13:01;31.20;44.90
49222;DHT22;35047;37.588;-122.048;2023-06-26T00:15:29;31.30;44.50
49222;DHT22;35047;37.588;-122.048;2023-06-26T00:17:58;31.20;44.30
49222;DHT22;35047;37.588;-122.048;2023-06-26T00:20:25;31.30;45.00
49222;DHT22;35047;37.588;-122.048;2023-06-26T00:22:51;31.30;44.90
49222;DHT22;35047;37.588;-122.048;2023-06-26T00:25:19;31.30;44.70
49222;DHT22;35047;37.588;-122.048;2023-06-26T00:27:46;31.10;44.60
49222;DHT22;35047;37.588;-122.048;2023-06-26T00:30:12;31.00;45.20
49222;DHT22;35047;37.588;-122.048;2023-06-26T00:32:39;30.80;45.10
49222;DHT22;35047;37.588;-122.048;2023-06-26T00:35:05;30.70;45.20
49222;DHT22;35047;37.588;-122.048;2023-06-26T00:37:32;30.70;45.40
49222;DHT22;35047;37.588;-122.048;2023-06-26T00:39:58;30.60;45.70
49222;DHT22;35047;37.588;-122.048;2023-06-26T00:42:25;30.50;45.40
49222;DHT22;35047;37.588;-122.048;2023-06-26T00:44:51;30.40;45.90
49222;DHT22;35047;37.588;-122.048;2023-06-26T00:47:18;30.40;45.80
49222;DHT22;35047;37.588;-122.048;2023-06-26T00:49:45;30.20;46.90
49222;DHT22;35047;37.588;-122.048;2023-06-26T00:52:11;30.10;47.50
49222;DHT22;35047;37.588;-122.048;2023-06-26T00:54:38;29.60;47.80
49222;DHT22;35047;37.588;-122.048;2023-06-26T00:57:05;29.60;48.50
49222;DHT22;35047;37.588;-122.048;2023-06-26T00:59:31;29.70;47.90
49222;DHT22;35047;37.588;-122.048;2023-06-26T01:01:58;29.70;47.80
49222;DHT22;35047;37.588;-122.048;2023-06-26T01:04:25;29.70;47.50
49222;DHT22;35047;37.588;-122.048;2023-06-26T01:06:54;29.50;47.20
49222;DHT22;35047;37.588;-122.048;2023-06-26T01:09:22;29.40;47.40
49222;DHT22;35047;37.588;-122.048;2023-06-26T01:11:49;29.20;47.70
49222;DHT22;35047;37.588;-122.048;2023-06-26T01:14:16;29.00;48.00
49222;DHT22;35047;37.588;-122.048;2023-06-26T01:16:43;28.70;48.50
49222;DHT22;35047;37.588;-122.048;2023-06-26T01:19:39;28.60;49.10
49222;DHT22;35047;37.588;-122.048;2023-06-26T01:27:22;27.90;49.90
49222;DHT22;35047;37.588;-122.048;2023-06-26T01:29:50;27.70;50.40
49222;DHT22;35047;37.588;-122.048;2023-06-26T01:32:19;27.40;50.70
49222;DHT22;35047;37.588;-122.048;2023-06-26T01:34:45;27.30;50.90
49222;DHT22;35047;37.588;-122.048;2023-06-26T01:37:12;27.10;51.30
49222;DHT22;35047;37.588;-122.048;2023-06-26T01:39:38;27.00;51.60
49222;DHT22;35047;37.588;-122.048;2023-06-26T01:42:05;26.90;51.80
49222;DHT22;35047;37.588;-122.048;2023-06-26T01:44:35;26.60;52.00
49222;DHT22;35047;37.588;-122.048;2023-06-26T01:47:04;26.40;52.20
49222;DHT22;35047;37.588;-122.048;2023-06-26T01:49:51;26.30;52.50
49222;DHT22;35047;37.588;-122.048;2023-06-26T01:52:26;26.20;53.20
49222;DHT22;35047;37.588;-122.048;2023-06-26T01:57:53;26.00;54.00
49222;DHT22;35047;37.588;-122.048;2023-06-26T02:00:23;25.80;54.00
49222;DHT22;35047;37.588;-122.048;2023-06-26T02:02:51;25.70;54.20
49222;DHT22;35047;37.588;-122.048;2023-06-26T02:05:17;25.60;54.40
49222;DHT22;35047;37.588;-122.048;2023-06-26T02:07:44;25.50;54.50
49222;DHT22;35047;37.588;-122.048;2023-06-26T02:10:10;25.40;54.70
49222;DHT22;35047;37.588;-122.048;2023-06-26T02:12:38;25.30;54.70
49222;DHT22;35047;37.588;-122.048;2023-06-26T02:15:05;25.20;54.90
49222;DHT22;35047;37.588;-122.048;2023-06-26T02:17:31;25.10;55.30
49222;DHT22;35047;37.588;-122.048;2023-06-26T02:19:58;25.00;55.90
49222;DHT22;35047;37.588;-122.048;2023-06-26T02:22:24;24.90;56.40
49222;DHT22;35047;37.588;-122.048;2023-06-26T02:24:51;24.80;56.80
49222;DHT22;35047;37.588;-122.048;2023-06-26T02:27:18;24.80;56.90
49222;DHT22;35047;37.588;-122.048;2023-06-26T02:29:45;24.80;57.00
49222;DHT22;35047;37.588;-122.048;2023-06-26T02:32:11;24.70;57.20
49222;DHT22;35047;37.588;-122.048;2023-06-26T02:34:38;24.70;57.60
49222;DHT22;35047;37.588;-122.048;2023-06-26T02:37:04;24.60;57.80
49222;DHT22;35047;37.588;-122.048;2023-06-26T02:39:34;24.50;58.00
49222;DHT22;35047;37.588;-122.048;2023-06-26T02:42:00;24.50;58.00
49222;DHT22;35047;37.588;-122.048;2023-06-26T02:44:27;24.40;58.00
49222;DHT22;35047;37.588;-122.048;2023-06-26T02:46:53;24.30;58.00
49222;DHT22;35047;37.588;-122.048;2023-06-26T02:49:20;24.30;58.30
49222;DHT22;35047;37.588;-122.048;2023-06-26T02:51:46;24.10;58.20
49222;DHT22;35047;37.588;-122.048;2023-06-26T02:54:13;24.10;58.30
49222;DHT22;35047;37.588;-122.048;2023-06-26T02:56:39;24.00;58.30
49222;DHT22;35047;37.588;-122.048;2023-06-26T02:59:06;23.90;58.60
49222;DHT22;35047;37.588;-122.048;2023-06-26T03:01:32;23.80;58.70
49222;DHT22;35047;37.588;-122.048;2023-06-26T03:03:59;23.80;58.80
49222;DHT22;35047;37.588;-122.048;2023-06-26T03:06:29;23.70;59.00
49222;DHT22;35047;37.588;-122.048;2023-06-26T03:08:56;23.70;59.30
49222;DHT22;35047;37.588;-122.048;2023-06-26T03:11:23;23.70;59.30
49222;DHT22;35047;37.588;-122.048;2023-06-26T03:13:50;23.60;59.40
49222;DHT22;35047;37.588;-122.048;2023-06-26T03:16:16;23.50;59.50
49222;DHT22;35047;37.588;-122.048;2023-06-26T03:18:43;23.50;59.80
49222;DHT22;35047;37.588;-122.048;2023-06-26T03:21:09;23.40;59.80
49222;DHT22;35047;37.588;-122.048;2023-06-26T03:23:36;23.40;60.10
49222;DHT22;35047;37.588;-122.048;2023-06-26T03:26:02;23.40;60.10
49222;DHT22;35047;37.588;-122.048;2023-06-26T03:28:29;23.30;60.20
49222;DHT22;35047;37.588;-122.048;2023-06-26T03:30:57;23.20;60.30
49222;DHT22;35047;37.588;-122.048;2023-06-26T03:33:23;23.20;60.40
49222;DHT22;35047;37.588;-122.048;2023-06-26T03:35:50;23.20;60.70
49222;DHT22;35047;37.588;-122.048;2023-06-26T03:38:16;23.20;60.90
49222;DHT22;35047;37.588;-122.048;2023-06-26T03:40:43;23.10;60.70
49222;DHT22;35047;37.588;-122.048;2023-06-26T03:43:10;23.10;60.90
49222;DHT22;35047;37.588;-122.048;2023-06-26T03:45:36;23.00;61.20
49222;DHT22;35047;37.588;-122.048;2023-06-26T03:48:03;23.00;61.40
49222;DHT22;35047;37.588;-122.048;2023-06-26T03:50:29;22.90;61.50
49222;DHT22;35047;37.588;-122.048;2023-06-26T03:52:56;22.80;61.50
49222;DHT22;35047;37.588;-122.048;2023-06-26T03:55:22;22.80;61.70
49222;DHT22;35047;37.588;-122.048;2023-06-26T03:57:50;22.70;62.10
49222;DHT22;35047;37.588;-122.048;2023-06-26T04:00:16;22.70;62.50
49222;DHT22;35047;37.588;-122.048;2023-06-26T04:02:43;22.50;62.80
49222;DHT22;35047;37.588;-122.048;2023-06-26T04:05:10;22.50;63.30
49222;DHT22;35047;37.588;-122.048;2023-06-26T04:07:37;22.50;63.50
49222;DHT22;35047;37.588;-122.048;2023-06-26T04:10:06;22.40;63.60
49222;DHT22;35047;37.588;-122.048;2023-06-26T04:12:32;22.30;63.80
49222;DHT22;35047;37.588;-122.048;2023-06-26T04:15:00;22.30;63.80
49222;DHT22;35047;37.588;-122.048;2023-06-26T04:17:26;22.20;63.90
49222;DHT22;35047;37.588;-122.048;2023-06-26T04:19:52;22.20;64.30
49222;DHT22;35047;37.588;-122.048;2023-06-26T04:22:19;22.10;64.30
49222;DHT22;35047;37.588;-122.048;2023-06-26T04:24:46;22.10;64.60
49222;DHT22;35047;37.588;-122.048;2023-06-26T04:27:12;22.10;64.60
49222;DHT22;35047;37.588;-122.048;2023-06-26T04:29:42;22.10;64.60
49222;DHT22;35047;37.588;-122.048;2023-06-26T04:32:09;22.10;64.90
49222;DHT22;35047;37.588;-122.048;2023-06-26T04:34:35;22.00;64.50
49222;DHT22;35047;37.588;-122.048;2023-06-26T04:37:08;22.10;64.60
49222;DHT22;35047;37.588;-122.048;2023-06-26T04:39:36;22.00;64.50
49222;DHT22;35047;37.588;-122.048;2023-06-26T04:42:04;22.00;64.50
49222;DHT22;35047;37.588;-122.048;2023-06-26T04:44:31;22.00;64.80
49222;DHT22;35047;37.588;-122.048;2023-06-26T04:46:57;22.00;64.70
49222;DHT22;35047;37.588;-122.048;2023-06-26T04:49:24;21.90;64.90
49222;DHT22;35047;37.588;-122.048;2023-06-26T04:51:50;21.90;65.10
49222;DHT22;35047;37.588;-122.048;2023-06-26T04:54:17;21.80;65.20
49222;DHT22;35047;37.588;-122.048;2023-06-26T04:56:43;21.80;65.20
49222;DHT22;35047;37.588;-122.048;2023-06-26T04:59:13;21.80;65.40
49222;DHT22;35047;37.588;-122.048;2023-06-26T05:01:40;21.70;65.30
49222;DHT22;35047;37.588;-122.048;2023-06-26T05:04:07;21.70;65.60
49222;DHT22;35047;37.588;-122.048;2023-06-26T05:06:34;21.60;65.70
49222;DHT22;35047;37.588;-122.048;2023-06-26T05:09:01;21.50;65.80
49222;DHT22;35047;37.588;-122.048;2023-06-26T05:11:27;21.50;65.80
49222;DHT22;35047;37.588;-122.048;2023-06-26T05:13:54;21.60;66.00
49222;DHT22;35047;37.588;-122.048;2023-06-26T05:16:20;21.60;65.70
49222;DHT22;35047;37.588;-122.048;2023-06-26T05:18:47;21.60;65.70
49222;DHT22;35047;37.588;-122.048;2023-06-26T05:21:13;21.60;65.70
49222;DHT22;35047;37.588;-122.048;2023-06-26T05:23:42;21.60;65.50
49222;DHT22;35047;37.588;-122.048;2023-06-26T05:26:12;21.60;65.60
49222;DHT22;35047;37.588;-122.048;2023-06-26T05:28:39;21.60;65.50
49222;DHT22;35047;37.588;-122.048;2023-06-26T05:31:06;21.60;65.80
49222;DHT22;35047;37.588;-122.048;2023-06-26T05:33:34;21.50;65.60
49222;DHT22;35047;37.588;-122.048;2023-06-26T05:36:04;21.50;65.80
49222;DHT22;35047;37.588;-122.048;2023-06-26T05:38:32;21.50;65.80
49222;DHT22;35047;37.588;-122.048;2023-06-26T05:40:58;21.50;66.30
49222;DHT22;35047;37.588;-122.048;2023-06-26T05:43:25;21.50;66.10
49222;DHT22;35047;37.588;-122.048;2023-06-26T05:45:52;21.40;66.10
49222;DHT22;35047;37.588;-122.048;2023-06-26T05:48:18;21.40;66.10
49222;DHT22;35047;37.588;-122.048;2023-06-26T05:50:45;21.40;66.30
49222;DHT22;35047;37.588;-122.048;2023-06-26T05:53:11;21.40;66.40
49222;DHT22;35047;37.588;-122.048;2023-06-26T05:55:38;21.40;66.70
49222;DHT22;35047;37.588;-122.048;2023-06-26T05:58:07;21.40;66.50
49222;DHT22;35047;37.588;-122.048;2023-06-26T06:00:36;21.40;66.60
49222;DHT22;35047;37.588;-122.048;2023-06-26T06:03:03;21.40;66.70
49222;DHT22;35047;37.588;-122.048;2023-06-26T06:05:29;21.40;66.90
49222;DHT22;35047;37.588;-122.048;2023-06-26T06:07:56;21.40;66.80
49222;DHT22;35047;37.588;-122.048;2023-06-26T06:10:22;21.40;66.70
49222;DHT22;35047;37.588;-122.048;2023-06-26T06:12:48;21.40;66.60
49222;DHT22;35047;37.588;-122.048;2023-06-26T06:15:15;21.40;66.80
49222;DHT22;35047;37.588;-122.048;2023-06-26T06:17:41;21.40;66.80
49222;DHT22;35047;37.588;-122.048;2023-06-26T06:20:08;21.40;66.60
49222;DHT22;35047;37.588;-122.048;2023-06-26T06:22:35;21.40;66.40
49222;DHT22;35047;37.588;-122.048;2023-06-26T06:25:01;21.40;66.30
49222;DHT22;35047;37.588;-122.048;2023-06-26T06:27:28;21.40;66.50
49222;DHT22;35047;37.588;-122.048;2023-06-26T06:29:54;21.40;66.80
49222;DHT22;35047;37.588;-122.048;2023-06-26T06:32:21;21.30;66.80
49222;DHT22;35047;37.588;-122.048;2023-06-26T06:34:47;21.40;66.60
49222;DHT22;35047;37.588;-122.048;2023-06-26T06:37:14;21.30;66.80
49222;DHT22;35047;37.588;-122.048;2023-06-26T06:39:40;21.30;66.90
49222;DHT22;35047;37.588;-122.048;2023-06-26T06:42:07;21.30;66.70
49222;DHT22;35047;37.588;-122.048;2023-06-26T06:44:34;21.30;67.00
49222;DHT22;35047;37.588;-122.048;2023-06-26T06:47:01;21.30;66.90
49222;DHT22;35047;37.588;-122.048;2023-06-26T06:49:28;21.30;66.90
49222;DHT22;35047;37.588;-122.048;2023-06-26T06:51:54;21.20;66.80
49222;DHT22;35047;37.588;-122.048;2023-06-26T06:54:21;21.20;67.00
49222;DHT22;35047;37.588;-122.048;2023-06-26T06:56:47;21.20;67.30
49222;DHT22;35047;37.588;-122.048;2023-06-26T06:59:14;21.20;67.30
49222;DHT22;35047;37.588;-122.048;2023-06-26T07:01:41;21.20;67.50
49222;DHT22;35047;37.588;-122.048;2023-06-26T07:04:07;21.10;67.60
49222;DHT22;35047;37.588;-122.048;2023-06-26T07:06:34;21.10;67.70
49222;DHT22;35047;37.588;-122.048;2023-06-26T07:09:00;21.10;67.70
49222;DHT22;35047;37.588;-122.048;2023-06-26T07:11:27;21.10;67.90
49222;DHT22;35047;37.588;-122.048;2023-06-26T07:13:54;21.10;67.90
49222;DHT22;35047;37.588;-122.048;2023-06-26T07:16:24;21.10;67.80
49222;DHT22;35047;37.588;-122.048;2023-06-26T07:18:50;21.10;67.80
49222;DHT22;35047;37.588;-122.048;2023-06-26T07:21:18;21.10;68.00
49222;DHT22;35047;37.588;-122.048;2023-06-26T07:23:44;21.00;68.00
49222;DHT22;35047;37.588;-122.048;2023-06-26T07:26:13;21.00;68.10
49222;DHT22;35047;37.588;-122.048;2023-06-26T07:28:40;21.00;68.20
49222;DHT22;35047;37.588;-122.048;2023-06-26T07:31:06;21.00;68.20
49222;DHT22;35047;37.588;-122.048;2023-06-26T07:33:33;21.00;68.30
49222;DHT22;35047;37.588;-122.048;2023-06-26T07:35:59;21.00;68.60
49222;DHT22;35047;37.588;-122.048;2023-06-26T07:38:25;21.00;68.70
49222;DHT22;35047;37.588;-122.048;2023-06-26T07:40:52;20.90;68.80
49222;DHT22;35047;37.588;-122.048;2023-06-26T07:43:18;20.80;68.90
49222;DHT22;35047;37.588;-122.048;2023-06-26T07:45:45;20.90;69.30
49222;DHT22;35047;37.588;-122.048;2023-06-26T07:48:11;20.80;69.30
49222;DHT22;35047;37.588;-122.048;2023-06-26T07:50:38;20.80;69.30
49222;DHT22;35047;37.588;-122.048;2023-06-26T07:53:04;20.80;69.20
49222;DHT22;35047;37.588;-122.048;2023-06-26T07:55:32;20.80;69.20
49222;DHT22;35047;37.588;-122.048;2023-06-26T07:57:58;20.80;69.40
49222;DHT22;35047;37.588;-122.048;2023-06-26T08:00:25;20.80;69.30
49222;DHT22;35047;37.588;-122.048;2023-06-26T08:02:52;20.80;69.30
49222;DHT22;35047;37.588;-122.048;2023-06-26T08:05:19;20.80;69.30
49222;DHT22;35047;37.588;-122.048;2023-06-26T08:07:45;20.80;69.40
49222;DHT22;35047;37.588;-122.048;2023-06-26T08:10:11;20.80;69.30
49222;DHT22;35047;37.588;-122.048;2023-06-26T08:12:38;20.80;69.10
49222;DHT22;35047;37.588;-122.048;2023-06-26T08:15:07;20.80;69.20
49222;DHT22;35047;37.588;-122.048;2023-06-26T08:17:34;20.80;69.30
49222;DHT22;35047;37.588;-122.048;2023-06-26T08:20:02;20.70;69.50
49222;DHT22;35047;37.588;-122.048;2023-06-26T08:22:29;20.70;69.70
49222;DHT22;35047;37.588;-122.048;2023-06-26T08:24:56;20.60;70.00
49222;DHT22;35047;37.588;-122.048;2023-06-26T08:27:23;20.60;70.20
49222;DHT22;35047;37.588;-122.048;2023-06-26T08:29:49;20.60;70.30
49222;DHT22;35047;37.588;-122.048;2023-06-26T08:32:15;20.60;70.60
49222;DHT22;35047;37.588;-122.048;2023-06-26T08:34:42;20.50;70.70
49222;DHT22;35047;37.588;-122.048;2023-06-26T08:37:08;20.50;70.90
49222;DHT22;35047;37.588;-122.048;2023-06-26T08:39:35;20.40;71.00
49222;DHT22;35047;37.588;-122.048;2023-06-26T08:42:01;20.40;71.20
49222;DHT22;35047;37.588;-122.048;2023-06-26T08:44:28;20.40;71.30
49222;DHT22;35047;37.588;-122.048;2023-06-26T08:46:54;20.40;71.30
49222;DHT22;35047;37.588;-122.048;2023-06-26T08:49:43;20.40;71.40
49222;DHT22;35047;37.588;-122.048;2023-06-26T08:52:23;20.40;71.80
49222;DHT22;35047;37.588;-122.048;2023-06-26T08:54:58;20.30;71.80
49222;DHT22;35047;37.588;-122.048;2023-06-26T08:57:26;20.30;71.90
49222;DHT22;35047;37.588;-122.048;2023-06-26T08:59:53;20.30;72.10
49222;DHT22;35047;37.588;-122.048;2023-06-26T09:02:19;20.30;72.30
49222;DHT22;35047;37.588;-122.048;2023-06-26T09:04:49;20.20;72.20
49222;DHT22;35047;37.588;-122.048;2023-06-26T09:07:16;20.20;72.20
49222;DHT22;35047;37.588;-122.048;2023-06-26T09:09:43;20.20;72.30
49222;DHT22;35047;37.588;-122.048;2023-06-26T09:12:10;20.10;72.30
49222;DHT22;35047;37.588;-122.048;2023-06-26T09:14:38;20.00;72.20
49222;DHT22;35047;37.588;-122.048;2023-06-26T09:17:04;20.00;72.20
49222;DHT22;35047;37.588;-122.048;2023-06-26T09:19:31;20.00;72.20
49222;DHT22;35047;37.588;-122.048;2023-06-26T09:21:58;20.00;72.20
49222;DHT22;35047;37.588;-122.048;2023-06-26T09:24:25;20.00;72.30
49222;DHT22;35047;37.588;-122.048;2023-06-26T09:26:52;20.00;72.40
49222;DHT22;35047;37.588;-122.048;2023-06-26T09:29:18;20.00;72.40
49222;DHT22;35047;37.588;-122.048;2023-06-26T09:31:45;20.00;72.40
49222;DHT22;35047;37.588;-122.048;2023-06-26T09:34:12;19.90;72.50
49222;DHT22;35047;37.588;-122.048;2023-06-26T09:36:38;19.90;72.50
49222;DHT22;35047;37.588;-122.048;2023-06-26T09:39:07;20.00;72.50
49222;DHT22;35047;37.588;-122.048;2023-06-26T09:41:37;19.90;73.10
49222;DHT22;35047;37.588;-122.048;2023-06-26T09:44:07;20.00;72.50
49222;DHT22;35047;37.588;-122.048;2023-06-26T09:46:38;20.00;72.40
49222;DHT22;35047;37.588;-122.048;2023-06-26T09:49:05;19.90;72.20
49222;DHT22;35047;37.588;-122.048;2023-06-26T09:51:35;20.00;72.20
49222;DHT22;35047;37.588;-122.048;2023-06-26T09:54:03;20.00;72.20
49222;DHT22;35047;37.588;-122.048;2023-06-26T09:56:31;20.00;72.10
49222;DHT22;35047;37.588;-122.048;2023-06-26T09:59:02;20.00;72.00
49222;DHT22;35047;37.588;-122.048;2023-06-26T10:01:30;20.00;71.90
49222;DHT22;35047;37.588;-122.048;2023-06-26T10:03:58;20.00;71.90
49222;DHT22;35047;37.588;-122.048;2023-06-26T10:06:35;20.00;71.90
49222;DHT22;35047;37.588;-122.048;2023-06-26T10:09:03;20.00;72.10
49222;DHT22;35047;37.588;-122.048;2023-06-26T10:11:45;20.00;72.10
49222;DHT22;35047;37.588;-122.048;2023-06-26T10:14:14;20.00;72.20
49222;DHT22;35047;37.588;-122.048;2023-06-26T10:16:42;20.10;72.10
49222;DHT22;35047;37.588;-122.048;2023-06-26T10:19:11;20.10;72.00
49222;DHT22;35047;37.588;-122.048;2023-06-26T10:21:38;20.10;71.80
49222;DHT22;35047;37.588;-122.048;2023-06-26T10:24:06;20.10;71.90
49222;DHT22;35047;37.588;-122.048;2023-06-26T10:26:42;20.10;71.70
49222;DHT22;35047;37.588;-122.048;2023-06-26T10:29:10;20.10;71.80
49222;DHT22;35047;37.588;-122.048;2023-06-26T10:31:37;20.10;71.50
49222;DHT22;35047;37.588;-122.048;2023-06-26T10:34:05;20.10;71.40
49222;DHT22;35047;37.588;-122.048;2023-06-26T10:36:32;20.00;71.40
49222;DHT22;35047;37.588;-122.048;2023-06-26T10:39:05;20.10;71.60
49222;DHT22;35047;37.588;-122.048;2023-06-26T10:41:41;20.00;71.50
49222;DHT22;35047;37.588;-122.048;2023-06-26T10:44:08;20.10;71.60
49222;DHT22;35047;37.588;-122.048;2023-06-26T10:46:55;20.10;71.60
49222;DHT22;35047;37.588;-122.048;2023-06-26T10:49:30;20.10;71.50
49222;DHT22;35047;37.588;-122.048;2023-06-26T10:52:01;20.00;71.50
49222;DHT22;35047;37.588;-122.048;2023-06-26T10:54:32;20.00;71.70
49222;DHT22;35047;37.588;-122.048;2023-06-26T10:57:00;20.00;71.70
49222;DHT22;35047;37.588;-122.048;2023-06-26T10:59:28;20.00;71.70
49222;DHT22;35047;37.588;-122.048;2023-06-26T11:01:57;20.00;71.80
49222;DHT22;35047;37.588;-122.048;2023-06-26T11:04:38;20.00;71.90
49222;DHT22;35047;37.588;-122.048;2023-06-26T11:07:20;20.00;71.70
49222;DHT22;35047;37.588;-122.048;2023-06-26T11:10:14;20.00;71.80
49222;DHT22;35047;37.588;-122.048;2023-06-26T11:12:43;20.00;71.90
49222;DHT22;35047;37.588;-122.048;2023-06-26T11:15:19;19.90;72.10
49222;DHT22;35047;37.588;-122.048;2023-06-26T11:17:45;19.90;72.10
49222;DHT22;35047;37.588;-122.048;2023-06-26T11:20:14;20.00;72.10
49222;DHT22;35047;37.588;-122.048;2023-06-26T11:22:42;20.00;72.10
49222;DHT22;35047;37.588;-122.048;2023-06-26T11:25:10;19.90;71.80
49222;DHT22;35047;37.588;-122.048;2023-06-26T11:27:41;19.90;72.60
49222;DHT22;35047;37.588;-122.048;2023-06-26T11:30:21;19.90;71.90
49222;DHT22;35047;37.588;-122.048;2023-06-26T11:32:48;19.80;71.60
49222;DHT22;35047;37.588;-122.048;2023-06-26T11:35:24;19.80;71.90
49222;DHT22;35047;37.588;-122.048;2023-06-26T11:38:02;19.80;71.90
49222;DHT22;35047;37.588;-122.048;2023-06-26T11:40:33;19.80;72.00
49222;DHT22;35047;37.588;-122.048;2023-06-26T11:43:00;19.80;71.90
49222;DHT22;35047;37.588;-122.048;2023-06-26T11:45:34;19.80;71.80
49222;DHT22;35047;37.588;-122.048;2023-06-26T11:48:00;19.80;71.80
49222;DHT22;35047;37.588;-122.048;2023-06-26T11:50:27;19.80;71.60
49222;DHT22;35047;37.588;-122.048;2023-06-26T11:52:55;19.80;71.60
49222;DHT22;35047;37.588;-122.048;2023-06-26T11:55:26;19.80;71.50
49222;DHT22;35047;37.588;-122.048;2023-06-26T11:57:57;19.80;71.40
49222;DHT22;35047;37.588;-122.048;2023-06-26T12:00:24;19.80;71.30
49222;DHT22;35047;37.588;-122.048;2023-06-26T12:02:50;19.80;71.10
49222;DHT22;35047;37.588;-122.048;2023-06-26T12:05:18;19.80;71.10
49222;DHT22;35047;37.588;-122.048;2023-06-26T12:07:46;19.80;70.50
49222;DHT22;35047;37.588;-122.048;2023-06-26T12:10:14;19.80;70.40
49222;DHT22;35047;37.588;-122.048;2023-06-26T12:12:41;19.80;70.60
49222;DHT22;35047;37.588;-122.048;2023-06-26T12:15:10;19.80;70.60
49222;DHT22;35047;37.588;-122.048;2023-06-26T12:17:39;19.80;70.50
49222;DHT22;35047;37.588;-122.048;2023-06-26T12:20:18;19.80;71.20
49222;DHT22;35047;37.588;-122.048;2023-06-26T12:22:47;19.80;70.50
49222;DHT22;35047;37.588;-122.048;2023-06-26T12:25:14;19.80;70.30
49222;DHT22;35047;37.588;-122.048;2023-06-26T12:27:41;19.80;70.40
49222;DHT22;35047;37.588;-122.048;2023-06-26T12:30:07;19.80;70.50
49222;DHT22;35047;37.588;-122.048;2023-06-26T12:32:35;19.80;70.60
49222;DHT22;35047;37.588;-122.048;2023-06-26T12:35:01;19.80;70.60
49222;DHT22;35047;37.588;-122.048;2023-06-26T12:37:28;19.80;70.40
49222;DHT22;35047;37.588;-122.048;2023-06-26T12:39:58;19.70;70.40
49222;DHT22;35047;37.588;-122.048;2023-06-26T12:42:28;19.70;70.40
49222;DHT22;35047;37.588;-122.048;2023-06-26T12:44:55;19.70;70.60
49222;DHT22;35047;37.588;-122.048;2023-06-26T12:47:28;19.70;70.80
49222;DHT22;35047;37.588;-122.048;2023-06-26T12:49:57;19.80;70.80
49222;DHT22;35047;37.588;-122.048;2023-06-26T12:52:23;19.80;70.80
49222;DHT22;35047;37.588;-122.048;2023-06-26T12:54:54;19.80;70.60
49222;DHT22;35047;37.588;-122.048;2023-06-26T12:57:21;19.80;70.10
49222;DHT22;35047;37.588;-122.048;2023-06-26T12:59:49;19.80;70.20
49222;DHT22;35047;37.588;-122.048;2023-06-26T13:02:15;19.80;70.10
49222;DHT22;35047;37.588;-122.048;2023-06-26T13:04:42;19.80;69.90
49222;DHT22;35047;37.588;-122.048;2023-06-26T13:07:10;19.80;70.00
49222;DHT22;35047;37.588;-122.048;2023-06-26T13:09:37;19.80;70.10
49222;DHT22;35047;37.588;-122.048;2023-06-26T13:12:05;19.80;70.30
49222;DHT22;35047;37.588;-122.048;2023-06-26T13:14:32;19.80;70.10
49222;DHT22;35047;37.588;-122.048;2023-06-26T13:17:00;19.80;70.10
49222;DHT22;35047;37.588;-122.048;2023-06-26T13:19:27;19.80;69.90
49222;DHT22;35047;37.588;-122.048;2023-06-26T13:21:54;19.80;70.00
49222;DHT22;35047;37.588;-122.048;2023-06-26T13:24:21;19.80;69.70
49222;DHT22;35047;37.588;-122.048;2023-06-26T13:26:47;19.80;69.80
49222;DHT22;35047;37.588;-122.048;2023-06-26T13:29:14;19.80;69.90
49222;DHT22;35047;37.588;-122.048;2023-06-26T13:31:41;19.80;69.90
49222;DHT22;35047;37.588;-122.048;2023-06-26T13:34:08;19.70;69.60
49222;DHT22;35047;37.588;-122.048;2023-06-26T13:36:34;19.80;69.70
49222;DHT22;35047;37.588;-122.048;2023-06-26T13:39:02;19.70;69.70
49222;DHT22;35047;37.588;-122.048;2023-06-26T13:41:29;19.70;69.90
49222;DHT22;35047;37.588;-122.048;2023-06-26T13:43:55;19.70;70.20
49222;DHT22;35047;37.588;-122.048;2023-06-26T13:46:22;19.80;70.20
49222;DHT22;35047;37.588;-122.048;2023-06-26T13:48:48;19.80;70.30
49222;DHT22;35047;37.588;-122.048;2023-06-26T13:51:15;19.80;70.50
49222;DHT22;35047;37.588;-122.048;2023-06-26T13:53:41;19.80;70.40
49222;DHT22;35047;37.588;-122.048;2023-06-26T13:56:08;19.80;70.50
49222;DHT22;35047;37.588;-122.048;2023-06-26T13:58:35;19.80;70.30
49222;DHT22;35047;37.588;-122.048;2023-06-26T14:01:02;19.80;70.30
49222;DHT22;35047;37.588;-122.048;2023-06-26T14:03:31;19.80;70.50
49222;DHT22;35047;37.588;-122.048;2023-06-26T14:05:57;19.80;70.50
49222;DHT22;35047;37.588;-122.048;2023-06-26T14:08:23;19.80;70.30
49222;DHT22;35047;37.588;-122.048;2023-06-26T14:10:50;19.90;70.30
49222;DHT22;35047;37.588;-122.048;2023-06-26T14:13:16;19.90;70.20
49222;DHT22;35047;37.588;-122.048;2023-06-26T14:15:43;19.90;70.10
49222;DHT22;35047;37.588;-122.048;2023-06-26T14:18:10;19.90;69.90
49222;DHT22;35047;37.588;-122.048;2023-06-26T14:20:36;19.90;69.50
49222;DHT22;35047;37.588;-122.048;2023-06-26T14:23:03;19.90;69.20
49222;DHT22;35047;37.588;-122.048;2023-06-26T14:25:30;19.90;69.20
49222;DHT22;35047;37.588;-122.048;2023-06-26T14:27:57;19.90;69.70
49222;DHT22;35047;37.588;-122.048;2023-06-26T14:30:24;19.90;70.20
49222;DHT22;35047;37.588;-122.048;2023-06-26T14:32:51;19.90;69.80
49222;DHT22;35047;37.588;-122.048;2023-06-26T14:35:17;19.90;69.80
49222;DHT22;35047;37.588;-122.048;2023-06-26T14:37:44;19.90;70.20
49222;DHT22;35047;37.588;-122.048;2023-06-26T14:40:11;19.90;70.00
49222;DHT22;35047;37.588;-122.048;2023-06-26T14:42:37;20.00;69.70
49222;DHT22;35047;37.588;-122.048;2023-06-26T14:45:04;20.00;69.50
49222;DHT22;35047;37.588;-122.048;2023-06-26T14:47:31;20.00;69.40
49222;DHT22;35047;37.588;-122.048;2023-06-26T14:49:57;20.10;69.50
49222;DHT22;35047;37.588;-122.048;2023-06-26T14:52:24;20.10;69.30
49222;DHT22;35047;37.588;-122.048;2023-06-26T14:54:51;20.20;69.40
49222;DHT22;35047;37.588;-122.048;2023-06-26T14:57:17;20.20;68.90
49222;DHT22;35047;37.588;-122.048;2023-06-26T14:59:44;20.30;69.10